createdAt,value
2019-05-13T00:00:25.495Z,3.80
2019-05-13T00:02:54.720Z,5.07
2019-05-13T00:05:24.325Z,6.83
2019-05-13T00:07:54.048Z,6.77
2019-05-13T00:10:29.310Z,5.40
2019-05-13T00:12:58.608Z,5.17
2019-05-13T00:15:27.888Z,3.13
2019-05-13T00:17:57.357Z,8.50
2019-05-13T00:20:26.604Z,5.67
2019-05-13T00:22:58.258Z,3.97
2019-05-13T00:25:27.763Z,6.00
2019-05-13T00:27:57.076Z,7.30
2019-05-13T00:30:26.438Z,4.23
2019-05-13T00:32:55.717Z,6.43
2019-05-13T00:35:25.381Z,6.30
2019-05-13T00:37:55.152Z,6.20
2019-05-13T00:40:25.654Z,8.27
2019-05-13T00:43:03.522Z,9.23
2019-05-13T00:45:44.836Z,5.90
2019-05-13T00:48:14.526Z,6.87
2019-05-13T00:50:44.472Z,5.73
2019-05-13T00:53:14.057Z,6.57
2019-05-13T00:55:44.495Z,5.40
2019-05-13T00:58:14.349Z,7.20
2019-05-13T01:00:44.668Z,7.33
2019-05-13T01:03:14.435Z,5.70
2019-05-13T01:05:44.493Z,6.40
2019-05-13T01:08:14.761Z,7.23
2019-05-13T01:10:47.817Z,6.17
2019-05-13T01:13:17.302Z,6.13
2019-05-13T01:15:46.694Z,7.90
2019-05-13T01:18:20.177Z,11.00
2019-05-13T01:20:49.572Z,6.80
2019-05-13T01:23:19.825Z,6.23
2019-05-13T01:25:50.441Z,9.10
2019-05-13T01:28:23.951Z,7.23
2019-05-13T01:30:54.096Z,8.80
2019-05-13T01:33:25.093Z,12.33
2019-05-13T01:35:54.643Z,10.60
2019-05-13T01:38:24.249Z,8.77
2019-05-13T01:40:54.130Z,9.17
2019-05-13T01:43:24.811Z,9.87
2019-05-13T01:45:54.343Z,7.23
2019-05-13T01:48:24.663Z,10.00
2019-05-13T01:50:54.372Z,7.73
2019-05-13T01:53:24.560Z,9.97
2019-05-13T01:55:54.721Z,10.97
2019-05-13T01:58:24.489Z,9.60
2019-05-13T02:00:55.214Z,10.87
2019-05-13T02:03:25.383Z,9.23
2019-05-13T02:05:56.097Z,11.30
2019-05-13T02:08:25.331Z,12.33
2019-05-13T02:10:57.209Z,12.83
2019-05-13T02:13:26.794Z,11.17
2019-05-13T02:15:56.591Z,11.40
2019-05-13T02:18:26.008Z,10.93
2019-05-13T02:20:56.071Z,10.37
2019-05-13T02:23:28.659Z,12.00
2019-05-13T02:25:58.416Z,11.73
2019-05-13T02:28:33.244Z,12.47
2019-05-13T02:31:03.286Z,12.43
2019-05-13T02:33:33.910Z,13.67
2019-05-13T02:36:03.814Z,13.00
2019-05-13T02:38:35.348Z,13.60
2019-05-13T02:41:04.333Z,11.97
2019-05-13T02:43:33.753Z,14.27
2019-05-13T02:46:04.155Z,13.07
2019-05-13T02:48:34.083Z,11.97
2019-05-13T02:51:04.003Z,13.90
2019-05-13T02:53:33.929Z,13.27
2019-05-13T02:56:03.688Z,13.57
2019-05-13T02:58:33.891Z,12.90
2019-05-13T03:01:03.739Z,13.80
2019-05-13T03:03:34.031Z,15.23
2019-05-13T03:06:03.667Z,12.90
2019-05-13T03:08:44.915Z,13.57
2019-05-13T03:11:06.312Z,14.70
2019-05-13T03:13:35.593Z,13.37
2019-05-13T03:16:22.910Z,14.53
2019-05-13T03:18:52.373Z,14.40
2019-05-13T03:21:23.227Z,19.03
2019-05-13T03:23:53.063Z,14.37
2019-05-13T03:26:23.465Z,15.73
2019-05-13T03:28:53.418Z,15.97
2019-05-13T03:31:26.152Z,14.67
2019-05-13T03:33:56.760Z,18.33
2019-05-13T03:36:26.862Z,17.03
2019-05-13T03:39:05.614Z,16.27
2019-05-13T03:41:28.163Z,17.73
2019-05-13T03:43:57.738Z,17.87
2019-05-13T03:46:27.433Z,16.63
2019-05-13T03:48:56.831Z,18.13
2019-05-13T03:51:26.294Z,19.00
2019-05-13T03:53:55.629Z,17.60
2019-05-13T03:56:24.935Z,19.00
2019-05-13T03:58:54.653Z,18.17
2019-05-13T04:01:24.211Z,18.83
2019-05-13T04:03:53.895Z,17.53
2019-05-13T04:06:23.951Z,19.33
2019-05-13T04:08:54.344Z,21.17
2019-05-13T04:11:23.917Z,23.00
2019-05-13T04:13:53.235Z,19.03
2019-05-13T04:16:23.968Z,18.37
2019-05-13T04:18:54.099Z,19.90
2019-05-13T04:21:23.731Z,19.17
2019-05-13T04:23:54.114Z,21.97
2019-05-13T04:26:24.084Z,19.67
2019-05-13T04:28:53.536Z,20.17
2019-05-13T04:31:23.295Z,19.27
2019-05-13T04:33:53.267Z,20.37
2019-05-13T04:36:25.198Z,20.47
2019-05-13T04:38:54.919Z,20.77
2019-05-13T04:41:24.195Z,17.97
2019-05-13T04:43:54.298Z,17.97
2019-05-13T04:46:23.730Z,20.13
2019-05-13T04:48:53.400Z,17.33
2019-05-13T04:51:23.150Z,19.63
2019-05-13T04:53:56.850Z,15.27
2019-05-13T04:56:24.423Z,18.83
2019-05-13T04:58:53.696Z,20.23
2019-05-13T05:02:13.913Z,16.40
2019-05-13T05:04:52.238Z,16.23
2019-05-13T05:07:32.670Z,17.33
2019-05-13T05:10:38.871Z,15.60
2019-05-13T05:13:32.317Z,15.63
2019-05-13T05:16:32.587Z,14.97
2019-05-13T05:19:32.207Z,16.63
2019-05-13T05:22:16.131Z,13.80
2019-05-13T05:25:13.169Z,15.30
2019-05-13T05:28:15.927Z,16.60
2019-05-13T05:31:11.523Z,13.40
2019-05-13T05:34:12.482Z,14.87
2019-05-13T05:37:11.825Z,13.20
2019-05-13T05:39:41.998Z,10.70
2019-05-13T05:42:12.946Z,12.73
2019-05-13T05:44:42.897Z,13.60
2019-05-13T05:47:12.128Z,10.27
2019-05-13T05:49:41.858Z,13.37
2019-05-13T05:52:12.411Z,12.87
2019-05-13T05:54:42.334Z,12.93
2019-05-13T05:57:12.246Z,10.37
2019-05-13T05:59:42.690Z,12.80
2019-05-13T06:02:14.382Z,10.33
2019-05-13T06:04:43.593Z,14.10
2019-05-13T06:07:12.880Z,10.43
2019-05-13T06:09:42.431Z,10.47
2019-05-13T06:12:12.163Z,11.53
2019-05-13T06:14:42.367Z,13.90
2019-05-13T06:17:12.022Z,10.63
2019-05-13T06:19:41.879Z,9.27
2019-05-13T06:22:12.303Z,12.00
2019-05-13T06:24:42.250Z,11.83
2019-05-13T06:27:12.006Z,11.50
2019-05-13T06:29:42.267Z,11.63
2019-05-13T06:32:19.172Z,12.03
2019-05-13T06:34:43.200Z,14.17
2019-05-13T06:37:18.419Z,8.93
2019-05-13T06:39:48.427Z,11.83
2019-05-13T06:42:17.879Z,10.57
2019-05-13T06:44:47.587Z,9.50
2019-05-13T06:47:17.398Z,15.43
2019-05-13T06:49:46.959Z,12.87
2019-05-13T06:52:16.307Z,12.87
2019-05-13T06:54:45.916Z,8.63
2019-05-13T06:57:15.311Z,9.10
2019-05-13T06:59:45.079Z,10.37
2019-05-13T07:02:14.439Z,12.00
2019-05-13T07:04:43.881Z,10.93
2019-05-13T07:07:17.109Z,13.37
2019-05-13T07:09:44.542Z,8.20
2019-05-13T07:12:14.068Z,8.60
2019-05-13T07:14:43.346Z,10.53
2019-05-13T07:17:12.933Z,8.13
2019-05-13T07:19:42.220Z,11.83
2019-05-13T07:22:11.735Z,9.37
2019-05-13T07:24:41.605Z,9.20
2019-05-13T07:27:12.187Z,11.87
2019-05-13T07:29:42.524Z,12.50
2019-05-13T07:32:12.140Z,9.87
2019-05-13T07:34:43.870Z,9.33
2019-05-13T07:37:12.906Z,9.20
2019-05-13T07:39:42.277Z,8.50
2019-05-13T07:42:12.461Z,10.77
2019-05-13T07:44:41.852Z,9.87
2019-05-13T07:47:11.734Z,9.37
2019-05-13T07:49:41.982Z,7.80
2019-05-13T07:52:12.038Z,8.13
2019-05-13T07:54:42.059Z,8.63
2019-05-13T07:57:12.233Z,9.07
2019-05-13T07:59:42.057Z,10.80
2019-05-13T08:02:12.414Z,12.07
2019-05-13T08:04:42.237Z,11.50
2019-05-13T08:07:12.194Z,8.93
2019-05-13T08:09:41.956Z,10.40
2019-05-13T08:12:14.314Z,12.63
2019-05-13T08:14:43.603Z,12.43
2019-05-13T08:17:13.273Z,12.77
2019-05-13T08:19:42.688Z,10.23
2019-05-13T08:22:12.224Z,7.20
2019-05-13T08:24:42.542Z,11.20
2019-05-13T08:27:12.006Z,8.80
2019-05-13T08:29:42.150Z,9.07
2019-05-13T08:32:11.606Z,11.03
2019-05-13T08:34:41.750Z,9.80
2019-05-13T08:37:11.695Z,11.97
2019-05-13T08:39:41.614Z,8.17
2019-05-13T08:42:15.835Z,7.60
2019-05-13T08:44:41.969Z,9.57
2019-05-13T08:47:12.016Z,12.33
2019-05-13T08:49:45.384Z,8.67
2019-05-13T08:52:15.126Z,9.13
2019-05-13T08:54:44.486Z,9.30
2019-05-13T08:57:14.030Z,8.33
2019-05-13T08:59:43.244Z,9.47
2019-05-13T09:02:12.473Z,10.37
2019-05-13T09:04:42.353Z,12.93
2019-05-13T09:07:12.338Z,10.80
2019-05-13T09:09:42.102Z,9.53
2019-05-13T09:12:11.820Z,13.87
2019-05-13T09:14:42.735Z,8.27
2019-05-13T09:17:12.218Z,7.43
2019-05-13T09:19:41.639Z,6.43
2019-05-13T09:22:12.350Z,7.60
2019-05-13T09:24:42.591Z,10.70
2019-05-13T09:27:12.292Z,12.37
2019-05-13T09:29:42.665Z,7.27
2019-05-13T09:32:12.427Z,10.27
2019-05-13T09:34:42.347Z,8.70
2019-05-13T09:37:12.349Z,8.97
2019-05-13T09:39:41.834Z,7.00
2019-05-13T09:42:12.700Z,6.90
2019-05-13T09:44:42.369Z,8.57
2019-05-13T09:47:12.453Z,12.30
2019-05-13T09:49:42.283Z,8.00
2019-05-13T09:52:13.908Z,5.57
2019-05-13T09:54:43.279Z,6.70
2019-05-13T09:57:12.664Z,6.97
2019-05-13T09:59:42.291Z,6.47
2019-05-13T10:02:13.025Z,9.13
2019-05-13T10:04:43.733Z,9.07
2019-05-13T10:07:13.451Z,8.53
2019-05-13T10:09:43.178Z,5.50
2019-05-13T10:12:13.816Z,8.87
2019-05-13T10:14:43.014Z,7.80
2019-05-13T10:17:13.109Z,7.87
2019-05-13T10:19:43.568Z,8.63
2019-05-13T10:22:12.824Z,7.50
2019-05-13T10:24:42.506Z,8.77
2019-05-13T10:27:12.517Z,8.03
2019-05-13T10:29:42.739Z,8.40
2019-05-13T10:32:12.101Z,7.47
2019-05-13T10:34:42.658Z,7.47
2019-05-13T10:37:12.490Z,11.93
2019-05-13T10:39:41.716Z,10.47
2019-05-13T10:42:12.083Z,7.50
2019-05-13T10:44:42.247Z,10.87
2019-05-13T10:47:12.173Z,8.97
2019-05-13T10:49:42.548Z,8.87
2019-05-13T10:52:12.441Z,10.83
2019-05-13T10:54:41.845Z,10.27
2019-05-13T10:57:13.693Z,6.97
2019-05-13T10:59:43.272Z,7.93
2019-05-13T11:02:13.307Z,9.67
2019-05-13T11:04:42.919Z,9.60
2019-05-13T11:07:12.588Z,9.73
2019-05-13T11:09:42.060Z,8.40
2019-05-13T11:12:12.455Z,8.03
2019-05-13T11:14:42.392Z,9.27
2019-05-13T11:17:13.186Z,10.57
2019-05-13T11:19:42.785Z,7.03
2019-05-13T11:22:12.438Z,7.60
2019-05-13T11:24:43.208Z,8.93
2019-05-13T11:27:12.689Z,6.53
2019-05-13T11:29:41.996Z,8.43
2019-05-13T11:32:13.313Z,7.87
2019-05-13T11:34:42.208Z,6.33
2019-05-13T11:37:12.327Z,5.60
2019-05-13T11:39:42.798Z,5.50
2019-05-13T11:42:13.671Z,7.07
2019-05-13T11:44:43.327Z,4.93
2019-05-13T11:47:12.895Z,5.80
2019-05-13T11:49:42.653Z,7.40
2019-05-13T11:52:12.261Z,6.37
2019-05-13T11:54:42.506Z,5.83
2019-05-13T11:57:12.547Z,10.67
2019-05-13T11:59:43.047Z,8.43
2019-05-13T12:02:13.592Z,6.20
2019-05-13T12:04:43.976Z,11.00
2019-05-13T12:07:13.710Z,6.07
2019-05-13T12:09:42.992Z,7.07
2019-05-13T12:12:13.137Z,4.37
2019-05-13T12:15:04.977Z,6.47
2019-05-13T12:17:14.332Z,8.57
2019-05-13T12:19:43.897Z,6.87
2019-05-13T12:22:13.353Z,7.63
2019-05-13T12:24:42.870Z,8.77
2019-05-13T12:27:12.165Z,10.20
2019-05-13T12:29:43.002Z,7.47
2019-05-13T12:32:13.725Z,7.90
2019-05-13T12:34:45.840Z,7.63
2019-05-13T12:37:14.092Z,8.60
2019-05-13T12:39:44.065Z,8.53
2019-05-13T12:42:13.488Z,11.77
2019-05-13T12:45:00.583Z,6.87
2019-05-13T12:47:13.595Z,7.33
2019-05-13T12:49:43.725Z,6.77
2019-05-13T12:52:13.641Z,8.10
2019-05-13T12:54:44.493Z,7.00
2019-05-13T12:57:16.244Z,7.07
2019-05-13T12:59:44.851Z,6.63
2019-05-13T13:02:14.113Z,6.77
2019-05-13T13:07:14.352Z,9.93
2019-05-13T13:09:43.696Z,7.77
2019-05-13T13:12:13.058Z,6.67
2019-05-13T13:14:44.322Z,7.57
2019-05-13T13:17:13.395Z,12.23
2019-05-13T13:19:42.631Z,7.07
2019-05-13T13:22:13.295Z,10.57
2019-05-13T13:24:50.734Z,10.57
2019-05-13T13:27:22.670Z,8.17
2019-05-13T13:29:44.862Z,7.63
2019-05-13T13:32:14.097Z,7.60
2019-05-13T13:34:44.284Z,7.30
2019-05-13T13:37:13.657Z,10.37
2019-05-13T13:39:43.602Z,5.60
2019-05-13T13:42:13.338Z,7.30
2019-05-13T13:44:43.115Z,10.10
2019-05-13T13:47:14.676Z,4.43
2019-05-13T13:49:44.096Z,8.40
2019-05-13T13:52:15.928Z,9.43
2019-05-13T13:54:44.586Z,5.57
2019-05-13T13:57:14.006Z,7.67
2019-05-13T14:00:14.175Z,6.47
2019-05-13T14:02:14.376Z,8.23
2019-05-13T14:04:43.809Z,6.33
2019-05-13T14:06:35.512Z,6.03
2019-05-13T14:07:26.559Z,8.73
2019-05-13T14:09:44.418Z,6.47
2019-05-13T14:12:13.646Z,11.37
2019-05-13T14:14:42.864Z,7.77
2019-05-13T14:17:12.226Z,8.63
2019-05-13T14:19:42.228Z,10.10
2019-05-13T14:22:12.539Z,8.10
2019-05-13T14:24:42.674Z,7.43
2019-05-13T14:27:12.285Z,6.30
2019-05-13T14:29:48.655Z,7.57
2019-05-13T14:32:12.584Z,4.03
2019-05-13T14:34:42.222Z,8.97
2019-05-13T14:37:11.822Z,9.90
2019-05-13T14:39:41.722Z,6.67
2019-05-13T14:42:11.705Z,7.63
2019-05-13T14:44:41.178Z,7.33
2019-05-13T14:47:12.474Z,7.93
2019-05-13T14:49:42.318Z,7.33
2019-05-13T14:52:12.114Z,7.53
2019-05-13T14:54:42.147Z,6.53
2019-05-13T14:57:14.844Z,6.07
2019-05-13T14:59:42.975Z,7.37
2019-05-13T15:02:12.338Z,7.73
2019-05-13T15:04:42.351Z,10.00
2019-05-13T15:07:12.349Z,7.80
2019-05-13T15:09:42.203Z,7.07
2019-05-13T15:12:11.724Z,6.93
2019-05-13T15:14:42.919Z,7.77
2019-05-13T15:17:12.731Z,9.53
2019-05-13T15:19:42.275Z,8.57
2019-05-13T15:22:13.613Z,8.80
2019-05-13T15:24:42.507Z,5.60
2019-05-13T15:27:11.972Z,7.63
2019-05-13T15:29:41.828Z,7.47
2019-05-13T15:32:11.232Z,8.03
2019-05-13T15:34:42.483Z,7.90
2019-05-13T15:37:11.430Z,8.03
2019-05-13T15:39:42.591Z,10.07
2019-05-13T15:42:12.070Z,10.87
2019-05-13T15:44:41.465Z,8.33
2019-05-13T15:47:22.821Z,7.27
2019-05-13T15:49:44.045Z,9.33
2019-05-13T15:52:13.492Z,8.60
2019-05-13T15:54:42.788Z,8.73
2019-05-13T15:57:12.163Z,7.17
2019-05-13T15:59:41.567Z,11.07
2019-05-13T16:02:11.804Z,5.63
2019-05-13T16:04:50.009Z,8.27
2019-05-13T16:07:12.620Z,8.70
2019-05-13T16:09:42.178Z,8.93
2019-05-13T16:12:12.194Z,6.77
2019-05-13T16:14:42.063Z,6.57
2019-05-13T16:17:12.298Z,5.97
2019-05-13T16:19:42.152Z,6.83
2019-05-13T16:22:11.976Z,10.73
2019-05-13T16:24:41.629Z,10.17
2019-05-13T16:27:11.853Z,7.27
2019-05-13T16:29:42.360Z,8.00
2019-05-13T16:32:12.108Z,5.03
2019-05-13T16:34:42.336Z,7.53
2019-05-13T16:37:11.882Z,6.33
2019-05-13T16:39:43.405Z,8.73
2019-05-13T16:42:12.644Z,6.03
2019-05-13T16:44:43.041Z,7.07
2019-05-13T16:47:12.499Z,9.27
2019-05-13T16:49:41.725Z,6.57
2019-05-13T16:52:11.708Z,7.97
2019-05-13T16:54:42.529Z,7.37
2019-05-13T16:57:11.994Z,6.83
2019-05-13T16:59:41.239Z,11.53
2019-05-13T17:02:12.641Z,5.07
2019-05-13T17:04:41.598Z,5.03
2019-05-13T17:07:10.864Z,3.00
2019-05-13T17:09:41.581Z,5.70
2019-05-13T17:12:12.896Z,5.97
2019-05-13T17:14:42.022Z,7.07
2019-05-13T17:17:11.875Z,5.07
2019-05-13T17:19:42.230Z,7.50
2019-05-13T17:22:11.673Z,3.53
2019-05-13T17:24:42.662Z,7.93
2019-05-13T17:27:12.222Z,5.07
2019-05-13T17:29:41.793Z,8.70
2019-05-13T17:32:11.581Z,8.70
2019-05-13T17:34:43.637Z,3.97
2019-05-13T17:37:12.044Z,5.93
2019-05-13T17:39:41.630Z,3.27
2019-05-13T17:42:12.281Z,8.20
2019-05-13T17:44:45.980Z,6.23
2019-05-13T17:47:12.688Z,6.83
2019-05-13T17:49:41.998Z,4.10
2019-05-13T17:52:11.610Z,7.53
2019-05-13T17:54:42.846Z,8.17
2019-05-13T17:57:12.369Z,7.10
2019-05-13T17:59:41.912Z,7.80
2019-05-13T18:02:11.884Z,5.03
2019-05-13T18:04:41.583Z,7.47
2019-05-13T18:07:12.158Z,4.07
2019-05-13T18:09:42.355Z,12.00
2019-05-13T18:12:11.883Z,5.47
2019-05-13T18:14:41.371Z,4.73
2019-05-13T18:17:12.527Z,2.87
2019-05-13T18:19:42.230Z,6.90
2019-05-13T18:22:11.667Z,2.83
2019-05-13T18:24:40.929Z,7.87
2019-05-13T18:27:12.237Z,11.50
2019-05-13T18:29:41.967Z,5.30
2019-05-13T18:32:12.325Z,5.17
2019-05-13T18:34:42.002Z,6.70
2019-05-13T18:37:11.832Z,7.73
2019-05-13T18:39:41.686Z,5.37
2019-05-13T18:42:11.645Z,6.30
2019-05-13T18:44:42.195Z,5.27
2019-05-13T18:47:12.203Z,9.47
2019-05-13T18:49:42.302Z,5.70
2019-05-13T18:52:11.897Z,5.43
2019-05-13T18:54:42.153Z,5.47
2019-05-13T18:57:12.260Z,6.23
2019-05-13T18:59:41.747Z,4.97
2019-05-13T19:02:12.227Z,6.00
2019-05-13T19:04:41.911Z,3.93
2019-05-13T19:07:11.117Z,4.47
2019-05-13T19:09:41.760Z,13.90
2019-05-13T19:12:11.754Z,7.13
2019-05-13T19:14:41.295Z,6.00
2019-05-13T19:17:12.402Z,7.23
2019-05-13T19:19:42.234Z,5.73
2019-05-13T19:22:12.303Z,6.83
2019-05-13T19:24:41.790Z,5.03
2019-05-13T19:27:12.049Z,4.60
2019-05-13T19:29:42.569Z,6.97
2019-05-13T19:32:12.568Z,14.83
2019-05-13T19:34:42.499Z,10.17
2019-05-13T19:37:12.023Z,7.13
2019-05-13T19:39:41.307Z,6.73
2019-05-13T19:42:11.595Z,5.80
2019-05-13T19:44:42.083Z,7.23
2019-05-13T19:47:12.473Z,6.43
2019-05-13T19:49:46.103Z,6.13
2019-05-13T19:52:12.833Z,5.30
2019-05-13T19:54:42.217Z,6.10
2019-05-13T19:57:12.109Z,4.60
2019-05-13T19:59:42.631Z,5.17
2019-05-13T20:02:12.453Z,6.30
2019-05-13T20:04:41.890Z,4.77
2019-05-13T20:07:11.947Z,3.90
2019-05-13T20:09:42.636Z,6.13
2019-05-13T20:12:15.522Z,6.30
2019-05-13T20:14:43.325Z,6.20
2019-05-13T20:17:12.693Z,6.23
2019-05-13T20:19:50.091Z,7.93
2019-05-13T20:22:13.099Z,5.03
2019-05-13T20:24:42.426Z,2.70
2019-05-13T20:27:12.108Z,3.13
2019-05-13T20:29:41.795Z,2.93
2019-05-13T20:32:11.684Z,6.10
2019-05-13T20:34:41.163Z,5.03
2019-05-13T20:37:12.390Z,6.47
2019-05-13T20:39:42.471Z,6.00
2019-05-13T20:42:12.520Z,5.77
2019-05-13T20:44:42.147Z,5.93
2019-05-13T20:47:11.394Z,5.83
2019-05-13T20:49:41.750Z,7.37
2019-05-13T20:52:15.060Z,5.20
2019-05-13T20:54:42.345Z,7.47
2019-05-13T20:57:11.581Z,6.73
2019-05-13T20:59:41.472Z,6.40
2019-05-13T21:02:12.480Z,7.90
2019-05-13T21:04:42.137Z,5.13
2019-05-13T21:07:11.341Z,11.47
2019-05-13T21:09:42.336Z,7.87
2019-05-13T21:12:12.165Z,6.50
2019-05-13T21:14:41.772Z,8.17
2019-05-13T21:17:12.320Z,7.53
2019-05-13T21:19:42.862Z,6.77
2019-05-13T21:22:13.013Z,9.17
2019-05-13T21:24:42.490Z,7.73
2019-05-13T21:27:12.131Z,9.43
2019-05-13T21:29:41.642Z,8.40
2019-05-13T21:32:11.733Z,7.13
2019-05-13T21:34:41.234Z,9.13
2019-05-13T21:37:11.529Z,9.53
2019-05-13T21:39:41.308Z,9.10
2019-05-13T21:42:11.453Z,8.80
2019-05-13T21:44:42.030Z,9.33
2019-05-13T21:47:11.594Z,8.57
2019-05-13T21:49:42.353Z,9.73
2019-05-13T21:52:11.846Z,12.40
2019-05-13T21:54:42.196Z,8.73
2019-05-13T21:57:11.750Z,8.40
2019-05-13T21:59:41.512Z,10.70
2019-05-13T22:02:11.293Z,8.43
2019-05-13T22:04:41.251Z,10.23
2019-05-13T22:07:12.130Z,8.70
2019-05-13T22:09:42.276Z,9.60
2019-05-13T22:12:11.743Z,12.67
2019-05-13T22:14:41.376Z,9.40
2019-05-13T22:17:12.280Z,12.87
2019-05-13T22:19:42.086Z,9.90
2019-05-13T22:22:12.041Z,11.30
2019-05-13T22:24:41.837Z,9.43
2019-05-13T22:27:13.278Z,9.43
2019-05-13T22:29:42.391Z,9.70
2019-05-13T22:32:11.977Z,13.43
2019-05-13T22:34:41.900Z,9.90
2019-05-13T22:37:11.798Z,11.20
2019-05-13T22:39:42.076Z,9.40
2019-05-13T22:42:12.397Z,10.07
2019-05-13T22:44:41.996Z,8.80
2019-05-13T22:47:13.306Z,10.47
2019-05-13T22:49:42.154Z,9.67
2019-05-13T22:52:11.535Z,11.60
2019-05-13T22:54:41.315Z,9.17
2019-05-13T22:57:11.939Z,10.53
2019-05-13T22:59:41.716Z,9.03
2019-05-13T23:02:11.059Z,8.87
2019-05-13T23:04:41.821Z,12.43
2019-05-13T23:07:11.766Z,10.57
2019-05-13T23:09:41.747Z,10.07
2019-05-13T23:12:12.285Z,10.23
2019-05-13T23:14:41.928Z,10.93
2019-05-13T23:17:12.451Z,11.70
2019-05-13T23:19:41.977Z,10.77
2019-05-13T23:22:12.070Z,10.80
2019-05-13T23:24:41.845Z,11.47
2019-05-13T23:27:11.348Z,10.93
2019-05-13T23:29:41.289Z,10.60
2019-05-13T23:32:12.154Z,10.60
2019-05-13T23:34:42.235Z,12.67
2019-05-13T23:37:11.795Z,13.00
2019-05-13T23:39:41.602Z,12.27
2019-05-13T23:42:12.271Z,11.50
2019-05-13T23:44:41.973Z,13.27
2019-05-13T23:47:11.665Z,10.80
2019-05-13T23:49:42.232Z,11.83
2019-05-13T23:52:11.980Z,10.50
2019-05-13T23:54:42.529Z,11.30
2019-05-13T23:57:12.100Z,11.00
2019-05-13T23:59:42.096Z,8.90
